San Diego, California
Traffic Map
Current Weather Conditions
San Diego, California
Scattered Clouds
Scattered Clouds
26°
Feels Like: 27°
Wind Chill: 26° Ceiling: Unl
Heat Index: 27° Visibility: 10mi
Dew Point: 17° Wind: 13mph
Humidity: 56% Direction: 290° (WNW)
Pressure: 29.92in Gusts: 0mph
Raw Report DataKSAN 232351Z 29011KT 10SM FEW010 SCT250 26/17 A2992 RMK AO2 SLP130 T02610167 10272 20250 56017 $
Traffic Incident Summary
Active as of:
Severity:
Category:
InformationThere was an issue retrieving the traffic information for this location. Please try a different location or try again shortly.
Advertisements
Track Severe Weather on mobile